地図

経路データ

SID SEASON NUMBER BASIN SUBBASIN NAME ISO_TIME NATURE LAT LON WMO_WIND WMO_PRES WMO_AGENCY TRACK_TYPE DIST2LAND LANDFALL IFLAG USA_AGENCY USA_ATCF_ID USA_LAT USA_LON USA_RECORD USA_STATUS USA_WIND USA_PRES USA_SSHS USA_R34_NE USA_R34_SE USA_R34_SW USA_R34_NW USA_R50_NE USA_R50_SE USA_R50_SW USA_R50_NW USA_R64_NE USA_R64_SE USA_R64_SW USA_R64_NW USA_POCI USA_ROCI USA_RMW USA_EYE TOKYO_LAT TOKYO_LON TOKYO_GRADE TOKYO_WIND TOKYO_PRES TOKYO_R50_DIR TOKYO_R50_LONG TOKYO_R50_SHORT TOKYO_R30_DIR TOKYO_R30_LONG TOKYO_R30_SHORT TOKYO_LAND CMA_LAT CMA_LON CMA_CAT CMA_WIND CMA_PRES HKO_LAT HKO_LON HKO_CAT HKO_WIND HKO_PRES NEWDELHI_LAT NEWDELHI_LON NEWDELHI_GRADE NEWDELHI_WIND NEWDELHI_PRES NEWDELHI_CI NEWDELHI_DP NEWDELHI_POCI REUNION_LAT REUNION_LON REUNION_TYPE REUNION_WIND REUNION_PRES REUNION_TNUM REUNION_CI REUNION_RMW REUNION_R34_NE REUNION_R34_SE REUNION_R34_SW REUNION_R34_NW REUNION_R50_NE REUNION_R50_SE REUNION_R50_SW REUNION_R50_NW REUNION_R64_NE REUNION_R64_SE REUNION_R64_SW REUNION_R64_NW BOM_LAT BOM_LON BOM_TYPE BOM_WIND BOM_PRES BOM_TNUM BOM_CI BOM_RMW BOM_R34_NE BOM_R34_SE BOM_R34_SW BOM_R34_NW BOM_R50_NE BOM_R50_SE BOM_R50_SW BOM_R50_NW BOM_R64_NE BOM_R64_SE BOM_R64_SW BOM_R64_NW BOM_ROCI BOM_POCI BOM_EYE BOM_POS_METHOD BOM_PRES_METHOD NADI_LAT NADI_LON NADI_CAT NADI_WIND NADI_PRES WELLINGTON_LAT WELLINGTON_LON WELLINGTON_WIND WELLINGTON_PRES DS824_LAT DS824_LON DS824_STAGE DS824_WIND DS824_PRES TD9636_LAT TD9636_LON TD9636_STAGE TD9636_WIND TD9636_PRES TD9635_LAT TD9635_LON TD9635_WIND TD9635_PRES TD9635_ROCI NEUMANN_LAT NEUMANN_LON NEUMANN_CLASS NEUMANN_WIND NEUMANN_PRES MLC_LAT MLC_LON MLC_CLASS MLC_WIND MLC_PRES USA_GUST BOM_GUST BOM_GUST_PER REUNION_GUST REUNION_GUST_PER USA_SEAHGT USA_SEARAD_NE USA_SEARAD_SE USA_SEARAD_SW USA_SEARAD_NW STORM_SPEED STORM_DIR
1999056S20035 1999 17 SI MM NOT_NAMED 1999-02-24 18:00:00 TS -20.4000 35.4000 main 61 61 O___________O_ jtwc_sh SH231999 -20.4000 35.4000 25 -1 -20.4000 35.4000 TC 25 2 117
1999056S20035 1999 17 SI MM NOT_NAMED 1999-02-24 21:00:00 TS -20.4500 35.5000 main 61 61 P___________P_ SH231999 -20.4500 35.5000 25 -1 -20.4500 35.5000 TC 25 2 119
1999056S20035 1999 17 SI MM NOT_NAMED 1999-02-25 00:00:00 TS -20.5000 35.6000 main 68 68 O___________O_ jtwc_sh SH231999 -20.5000 35.6000 25 -1 -20.5000 35.6000 TC 25 2 119
1999056S20035 1999 17 SI MM NOT_NAMED 1999-02-25 03:00:00 TS -20.5500 35.7000 main 76 70 P___________P_ SH231999 -20.5500 35.7000 25 -1 -20.5500 35.7000 TC 25 2 119
1999056S20035 1999 17 SI MM NOT_NAMED 1999-02-25 06:00:00 TS -20.6000 35.8000 main 80 80 O___________O_ jtwc_sh SH231999 -20.6000 35.8000 25 -1 -20.6000 35.8000 TC 25 2 120
1999056S20035 1999 17 SI MM NOT_NAMED 1999-02-25 09:00:00 TS -20.6575 35.9000 main 86 86 P___________P_ SH231999 -20.6575 35.9000 25 -1 -20.6575 35.9000 TC 25 2 119
1999056S20035 1999 17 SI MM NOT_NAMED 1999-02-25 12:00:00 TS -20.7000 36.0000 main 96 96 O___________O_ jtwc_sh SH231999 -20.7000 36.0000 25 -1 -20.7000 36.0000 TC 25 2 105
1999056S20035 1999 17 SI MM NOT_NAMED 1999-02-25 15:00:00 TS -20.7075 36.1000 main 106 106 P___________P_ SH231999 -20.7075 36.1000 25 -1 -20.7075 36.1000 TC 25 2 90
1999056S20035 1999 17 SI MM NOT_NAMED 1999-02-25 18:00:00 TS -20.7000 36.2000 main 116 116 O___________O_ jtwc_sh SH231999 -20.7000 36.2000 25 -1 -20.7000 36.2000 TC 25 2 88
1999056S20035 1999 17 SI MM NOT_NAMED 1999-02-25 21:00:00 TS -20.7000 36.3000 main 126 126 P___________P_ SH231999 -20.7000 36.3000 25 -1 -20.7000 36.3000 TC 25 2 90
1999056S20035 1999 17 SI MM NOT_NAMED 1999-02-26 00:00:00 TS -20.7000 36.4000 main 136 136 O___________O_ jtwc_sh SH231999 -20.7000 36.4000 25 -1 -20.7000 36.4000 TC 25 2 90
1999056S20035 1999 17 SI MM NOT_NAMED 1999-02-26 03:00:00 TS -20.7000 36.4925 main 147 147 P___________P_ SH231999 -20.7000 36.4925 25 -1 -20.7000 36.4925 TC 25 2 90
1999056S20035 1999 17 SI MM NOT_NAMED 1999-02-26 06:00:00 TS -20.7000 36.6000 main 157 157 O___________O_ jtwc_sh SH231999 -20.7000 36.6000 25 -1 -20.7000 36.6000 TC 25 2 90
1999056S20035 1999 17 SI MM NOT_NAMED 1999-02-26 09:00:00 TS -20.7000 36.7350 main 167 167 P___________P_ SH231999 -20.7000 36.7350 25 -1 -20.7000 36.7350 TC 25 3 90
1999056S20035 1999 17 SI MM NOT_NAMED 1999-02-26 12:00:00 TS -20.7000 36.9000 main 188 188 O___________O_ jtwc_sh SH231999 -20.7000 36.9000 25 -1 -20.7000 36.9000 TC 25 3 87
1999056S20035 1999 17 SI MM NOT_NAMED 1999-02-26 15:00:00 TS -20.6849 37.0776 main 209 209 P___________P_ SH231999 -20.6849 37.0776 25 -1 -20.6849 37.0776 TC 25 4 90
1999056S20035 1999 17 SI MM NOT_NAMED 1999-02-26 18:00:00 TS -20.7000 37.3000 main 226 226 O___________O_ jtwc_sh SH231999 -20.7000 37.3000 25 -1 -20.7000 37.3000 TC 25 5 102
1999056S20035 1999 17 SI MM NOT_NAMED 1999-02-26 21:00:00 TS -20.7850 37.5849 main 252 252 P___________P_ SH231999 -20.7850 37.5849 25 -1 -20.7850 37.5849 TC 25 6 110
1999056S20035 1999 17 SI MM NOT_NAMED 1999-02-27 00:00:00 TS -20.9000 37.9000 main 279 279 O___________O_ jtwc_sh SH231999 -20.9000 37.9000 25 -1 -20.9000 37.9000 TC 25 6 109
1999056S20035 1999 17 SI MM NOT_NAMED 1999-02-27 03:00:00 TS -20.9774 38.1852 main 307 307 P___________P_ SH231999 -20.9774 38.1852 25 -1 -20.9774 38.1852 TC 25 6 110
1999056S20035 1999 17 SI MM NOT_NAMED 1999-02-27 06:00:00 TS -21.1000 38.5000 main 333 333 O___________O_ jtwc_sh SH231999 -21.1000 38.5000 25 -1 -21.1000 38.5000 TC 25 8 118
1999056S20035 1999 17 SI MM NOT_NAMED 1999-02-27 09:00:00 TS -21.3351 38.8998 main 365 362 P___________P_ SH231999 -21.3351 38.8998 27 -1 -21.3351 38.8998 TC 27 9 124
1999056S20035 1999 17 SI MM NOT_NAMED 1999-02-27 12:00:00 TS -21.6000 39.3000 main 397 373 O___________O_ jtwc_sh SH231999 -21.6000 39.3000 30 -1 -21.6000 39.3000 TC 30 8 126
1999056S20035 1999 17 SI MM NOT_NAMED 1999-02-27 15:00:00 TS -21.8224 39.6151 main 373 340 P___________P_ SH231999 -21.8224 39.6151 30 -1 -21.8224 39.6151 TC 30 7 126
1999056S20035 1999 17 SI MM NOT_NAMED 1999-02-27 18:00:00 TS -22.0000 39.9000 main 340 309 O___________O_ jtwc_sh SH231999 -22.0000 39.9000 30 -1 -22.0000 39.9000 TC 30 6 118
1999056S20035 1999 17 SI MM NOT_NAMED 1999-02-27 21:00:00 TS -22.0998 40.1778 main 309 277 P___________P_ SH231999 -22.0998 40.1778 30 -1 -22.0998 40.1778 TC 30 6 110
1999056S20035 1999 17 SI MM NOT_NAMED 1999-02-28 00:00:00 TS -22.2000 40.5000 main 277 236 O___________O_ jtwc_sh SH231999 -22.2000 40.5000 30 -1 -22.2000 40.5000 TC 30 8 112
1999056S20035 1999 17 SI MM NOT_NAMED 1999-02-28 03:00:00 TS -22.3927 40.9498 main 236 187 P___________P_ SH231999 -22.3927 40.9498 30 -1 -22.3927 40.9498 TC 30 9 116
1999056S20035 1999 17 SI MM NOT_NAMED 1999-02-28 06:00:00 TS -22.6000 41.4000 main 187 160 O___________O_ jtwc_sh SH231999 -22.6000 41.4000 30 -1 -22.6000 41.4000 TC 30 8 116
1999056S20035 1999 17 SI MM NOT_NAMED 1999-02-28 09:00:00 TS -22.7348 41.7228 main 160 140 P___________P_ SH231999 -22.7348 41.7228 30 -1 -22.7348 41.7228 TC 30 6 118
1999056S20035 1999 17 SI MM NOT_NAMED 1999-02-28 12:00:00 TS -22.9000 42.0000 main 140 117 O___________O_ jtwc_sh SH231999 -22.9000 42.0000 30 -1 -22.9000 42.0000 TC 30 7 128
1999056S20035 1999 17 SI MM NOT_NAMED 1999-02-28 15:00:00 TS -23.1474 42.3002 main 117 102 P___________P_ SH231999 -23.1474 42.3002 30 -1 -23.1474 42.3002 TC 30 8 137
1999056S20035 1999 17 SI MM NOT_NAMED 1999-02-28 18:00:00 TS -23.5000 42.6000 main 104 74 O___________O_ jtwc_sh SH231999 -23.5000 42.6000 30 -1 -23.5000 42.6000 TC 30 10 147
1999056S20035 1999 17 SI MM NOT_NAMED 1999-02-28 21:00:00 TS -23.9623 42.8779 main 78 60 P___________P_ SH231999 -23.9623 42.8779 30 -1 -23.9623 42.8779 TC 30 11 151
1999056S20035 1999 17 SI MM NOT_NAMED 1999-03-01 00:00:00 TS -24.5000 43.2000 main 60 37 O___________O_ jtwc_sh SH231999 -24.5000 43.2000 30 -1 -24.5000 43.2000 TC 30 13 148
1999056S20035 1999 17 SI MM NOT_NAMED 1999-03-01 03:00:00 TS -25.0274 43.6130 main 40 30 P___________P_ SH231999 -25.0274 43.6130 27 -1 -25.0274 43.6130 TC 27 14 143
1999056S20035 1999 17 SI MM NOT_NAMED 1999-03-01 06:00:00 TS -25.6000 44.1000 main 45 45 O___________O_ jtwc_sh SH231999 -25.6000 44.1000 25 -1 -25.6000 44.1000 TC 25 15 143
1999056S20035 1999 17 SI MM NOT_NAMED 1999-03-01 09:00:00 TS -26.2329 44.6361 main 87 87 P___________P_ SH231999 -26.2329 44.6361 25 -1 -26.2329 44.6361 TC 25 16 143
1999056S20035 1999 17 SI MM NOT_NAMED 1999-03-01 12:00:00 TS -26.9000 45.2000 main 145 O___________O_ jtwc_sh SH231999 -26.9000 45.2000 25 -1 -26.9000 45.2000 TC 25 17 143

IBTrACS Databaseについて

本データベースは、米国NOAAが公開する1842年以降の世界の熱帯低気圧のベストトラックデータアーカイブInternational Best Track Archive for Climate Stewardship (IBTrACS)を、ウェブで閲覧しやすい形式に変換したものです。

最終更新日:2021-11-26